sensor_id;sensor_type;location;lat;lon;timestamp;P1;durP1;ratioP1;P2;durP2;ratioP2
32788;SDS011;19141;48.980;8.410;2023-06-10T04:22:33;4.25;;;3.47;;
32788;SDS011;19141;48.980;8.410;2023-06-10T04:24:58;4.18;;;3.78;;
32788;SDS011;19141;48.980;8.410;2023-06-10T04:27:24;3.95;;;3.40;;
32788;SDS011;19141;48.980;8.410;2023-06-10T04:29:51;4.07;;;3.60;;
32788;SDS011;19141;48.980;8.410;2023-06-10T04:32:18;4.13;;;3.55;;
32788;SDS011;19141;48.980;8.410;2023-06-10T04:34:43;5.28;;;3.35;;
32788;SDS011;19141;48.980;8.410;2023-06-10T04:37:09;4.28;;;3.28;;
32788;SDS011;19141;48.980;8.410;2023-06-10T04:39:35;4.95;;;3.47;;
32788;SDS011;19141;48.980;8.410;2023-06-10T04:42:01;4.65;;;3.40;;
32788;SDS011;19141;48.980;8.410;2023-06-10T04:44:28;4.47;;;3.00;;
32788;SDS011;19141;48.980;8.410;2023-06-10T04:46:56;5.18;;;3.67;;
32788;SDS011;19141;48.980;8.410;2023-06-10T04:49:21;4.57;;;3.90;;
32788;SDS011;19141;48.980;8.410;2023-06-10T04:51:47;3.38;;;3.05;;
32788;SDS011;19141;48.980;8.410;2023-06-10T04:54:12;3.90;;;2.95;;
32788;SDS011;19141;48.980;8.410;2023-06-10T04:56:38;4.38;;;3.05;;
32788;SDS011;19141;48.980;8.410;2023-06-10T04:59:04;4.93;;;3.58;;
32788;SDS011;19141;48.980;8.410;2023-06-10T05:01:29;4.00;;;3.35;;
32788;SDS011;19141;48.980;8.410;2023-06-10T05:03:55;3.88;;;3.20;;
32788;SDS011;19141;48.980;8.410;2023-06-10T05:06:20;3.55;;;3.25;;
32788;SDS011;19141;48.980;8.410;2023-06-10T05:08:46;3.83;;;3.38;;
32788;SDS011;19141;48.980;8.410;2023-06-10T05:11:12;3.88;;;2.97;;
32788;SDS011;19141;48.980;8.410;2023-06-10T05:13:37;3.20;;;2.83;;
32788;SDS011;19141;48.980;8.410;2023-06-10T05:16:05;3.47;;;3.17;;
32788;SDS011;19141;48.980;8.410;2023-06-10T05:18:30;3.85;;;2.90;;
32788;SDS011;19141;48.980;8.410;2023-06-10T05:20:56;3.55;;;3.17;;
32788;SDS011;19141;48.980;8.410;2023-06-10T05:23:21;4.15;;;3.30;;
32788;SDS011;19141;48.980;8.410;2023-06-10T05:25:47;3.50;;;2.90;;
32788;SDS011;19141;48.980;8.410;2023-06-10T05:28:13;4.18;;;3.10;;
32788;SDS011;19141;48.980;8.410;2023-06-10T05:30:38;3.42;;;3.10;;
32788;SDS011;19141;48.980;8.410;2023-06-10T05:33:04;3.78;;;3.05;;
32788;SDS011;19141;48.980;8.410;2023-06-10T05:35:29;3.78;;;3.38;;
32788;SDS011;19141;48.980;8.410;2023-06-10T05:37:55;3.08;;;2.75;;
32788;SDS011;19141;48.980;8.410;2023-06-10T05:40:20;3.95;;;3.42;;
32788;SDS011;19141;48.980;8.410;2023-06-10T05:42:46;3.33;;;2.92;;
32788;SDS011;19141;48.980;8.410;2023-06-10T05:45:11;5.68;;;3.55;;
32788;SDS011;19141;48.980;8.410;2023-06-10T05:47:37;4.18;;;2.80;;
32788;SDS011;19141;48.980;8.410;2023-06-10T05:50:02;3.70;;;3.33;;
32788;SDS011;19141;48.980;8.410;2023-06-10T05:52:32;3.78;;;3.13;;
32788;SDS011;19141;48.980;8.410;2023-06-10T05:54:58;3.65;;;3.10;;
32788;SDS011;19141;48.980;8.410;2023-06-10T05:57:24;4.30;;;3.50;;
32788;SDS011;19141;48.980;8.410;2023-06-10T05:59:50;4.82;;;3.20;;
32788;SDS011;19141;48.980;8.410;2023-06-10T06:02:15;3.63;;;2.92;;
32788;SDS011;19141;48.980;8.410;2023-06-10T06:04:41;4.40;;;2.88;;
32788;SDS011;19141;48.980;8.410;2023-06-10T06:07:06;4.00;;;2.90;;
32788;SDS011;19141;48.980;8.410;2023-06-10T06:09:31;3.60;;;2.90;;
32788;SDS011;19141;48.980;8.410;2023-06-10T06:11:57;3.58;;;2.72;;
32788;SDS011;19141;48.980;8.410;2023-06-10T06:14:22;3.58;;;3.10;;
32788;SDS011;19141;48.980;8.410;2023-06-10T06:16:48;3.95;;;3.10;;
32788;SDS011;19141;48.980;8.410;2023-06-10T06:19:13;3.38;;;3.00;;
32788;SDS011;19141;48.980;8.410;2023-06-10T06:21:39;3.80;;;2.72;;
32788;SDS011;19141;48.980;8.410;2023-06-10T06:24:04;4.05;;;3.13;;
32788;SDS011;19141;48.980;8.410;2023-06-10T06:26:30;3.53;;;2.60;;
32788;SDS011;19141;48.980;8.410;2023-06-10T06:28:55;4.22;;;2.78;;
32788;SDS011;19141;48.980;8.410;2023-06-10T06:31:21;3.33;;;2.97;;
32788;SDS011;19141;48.980;8.410;2023-06-10T06:33:46;3.08;;;2.78;;
32788;SDS011;19141;48.980;8.410;2023-06-10T06:36:11;2.67;;;2.42;;
32788;SDS011;19141;48.980;8.410;2023-06-10T06:38:37;3.17;;;2.63;;
32788;SDS011;19141;48.980;8.410;2023-06-10T06:41:03;3.92;;;3.05;;
32788;SDS011;19141;48.980;8.410;2023-06-10T06:43:31;2.75;;;2.47;;
32788;SDS011;19141;48.980;8.410;2023-06-10T06:46:12;3.22;;;2.63;;
32788;SDS011;19141;48.980;8.410;2023-06-10T06:48:37;4.45;;;3.22;;
32788;SDS011;19141;48.980;8.410;2023-06-10T06:51:02;2.78;;;2.42;;
32788;SDS011;19141;48.980;8.410;2023-06-10T06:53:28;3.58;;;2.70;;
32788;SDS011;19141;48.980;8.410;2023-06-10T06:55:53;4.45;;;3.35;;
32788;SDS011;19141;48.980;8.410;2023-06-10T06:58:19;3.33;;;3.03;;
32788;SDS011;19141;48.980;8.410;2023-06-10T07:00:44;3.33;;;2.80;;
32788;SDS011;19141;48.980;8.410;2023-06-10T07:03:10;2.97;;;2.63;;
32788;SDS011;19141;48.980;8.410;2023-06-10T07:05:35;3.58;;;2.47;;
32788;SDS011;19141;48.980;8.410;2023-06-10T07:08:00;2.95;;;2.38;;
32788;SDS011;19141;48.980;8.410;2023-06-10T07:10:26;3.40;;;2.78;;
32788;SDS011;19141;48.980;8.410;2023-06-10T07:12:52;3.00;;;2.58;;
32788;SDS011;19141;48.980;8.410;2023-06-10T07:15:18;3.40;;;2.50;;
32788;SDS011;19141;48.980;8.410;2023-06-10T07:17:43;3.55;;;2.50;;
32788;SDS011;19141;48.980;8.410;2023-06-10T07:20:10;3.80;;;2.95;;
32788;SDS011;19141;48.980;8.410;2023-06-10T07:22:36;3.38;;;2.85;;
32788;SDS011;19141;48.980;8.410;2023-06-10T07:25:01;3.45;;;2.58;;
32788;SDS011;19141;48.980;8.410;2023-06-10T07:27:27;3.17;;;2.53;;
32788;SDS011;19141;48.980;8.410;2023-06-10T07:29:52;3.40;;;2.65;;
32788;SDS011;19141;48.980;8.410;2023-06-10T07:32:18;3.88;;;2.85;;
32788;SDS011;19141;48.980;8.410;2023-06-10T07:34:45;3.22;;;2.90;;
32788;SDS011;19141;48.980;8.410;2023-06-10T07:37:11;2.90;;;2.47;;
32788;SDS011;19141;48.980;8.410;2023-06-10T07:39:36;5.20;;;3.20;;
32788;SDS011;19141;48.980;8.410;2023-06-10T07:42:01;3.78;;;2.85;;
32788;SDS011;19141;48.980;8.410;2023-06-10T07:44:27;3.88;;;3.05;;
32788;SDS011;19141;48.980;8.410;2023-06-10T07:46:53;4.05;;;2.50;;
32788;SDS011;19141;48.980;8.410;2023-06-10T07:49:18;3.95;;;3.05;;
32788;SDS011;19141;48.980;8.410;2023-06-10T07:51:44;2.97;;;2.67;;
32788;SDS011;19141;48.980;8.410;2023-06-10T07:54:09;3.20;;;2.70;;
32788;SDS011;19141;48.980;8.410;2023-06-10T07:59:02;3.90;;;2.88;;
32788;SDS011;19141;48.980;8.410;2023-06-10T08:01:27;4.20;;;2.85;;
32788;SDS011;19141;48.980;8.410;2023-06-10T08:03:55;3.80;;;2.63;;
32788;SDS011;19141;48.980;8.410;2023-06-10T08:06:20;3.45;;;2.78;;
32788;SDS011;19141;48.980;8.410;2023-06-10T08:08:45;3.17;;;2.50;;
32788;SDS011;19141;48.980;8.410;2023-06-10T08:11:12;4.60;;;2.92;;
32788;SDS011;19141;48.980;8.410;2023-06-10T08:13:38;4.38;;;3.15;;
32788;SDS011;19141;48.980;8.410;2023-06-10T08:16:03;3.75;;;3.00;;
32788;SDS011;19141;48.980;8.410;2023-06-10T08:18:29;3.47;;;2.97;;
32788;SDS011;19141;48.980;8.410;2023-06-10T08:20:54;3.03;;;2.67;;
32788;SDS011;19141;48.980;8.410;2023-06-10T08:23:20;2.92;;;2.40;;
32788;SDS011;19141;48.980;8.410;2023-06-10T08:25:45;2.88;;;2.53;;
32788;SDS011;19141;48.980;8.410;2023-06-10T08:28:11;2.55;;;2.20;;
32788;SDS011;19141;48.980;8.410;2023-06-10T08:30:36;2.67;;;2.47;;
32788;SDS011;19141;48.980;8.410;2023-06-10T08:33:01;2.58;;;2.25;;
32788;SDS011;19141;48.980;8.410;2023-06-10T08:35:27;2.47;;;2.03;;
32788;SDS011;19141;48.980;8.410;2023-06-10T08:37:52;2.58;;;1.95;;
32788;SDS011;19141;48.980;8.410;2023-06-10T08:40:18;2.20;;;1.73;;
32788;SDS011;19141;48.980;8.410;2023-06-10T08:42:45;2.10;;;1.52;;
32788;SDS011;19141;48.980;8.410;2023-06-10T08:45:17;4.38;;;2.25;;
32788;SDS011;19141;48.980;8.410;2023-06-10T08:47:44;5.10;;;2.10;;
32788;SDS011;19141;48.980;8.410;2023-06-10T08:50:13;2.42;;;2.15;;
32788;SDS011;19141;48.980;8.410;2023-06-10T08:52:42;2.35;;;1.83;;
32788;SDS011;19141;48.980;8.410;2023-06-10T08:57:43;3.33;;;2.60;;
32788;SDS011;19141;48.980;8.410;2023-06-10T09:00:09;3.30;;;2.60;;
32788;SDS011;19141;48.980;8.410;2023-06-10T09:02:35;2.83;;;2.50;;
32788;SDS011;19141;48.980;8.410;2023-06-10T09:05:02;3.53;;;2.70;;
32788;SDS011;19141;48.980;8.410;2023-06-10T09:07:27;3.13;;;2.67;;
32788;SDS011;19141;48.980;8.410;2023-06-10T09:09:56;2.60;;;2.40;;
32788;SDS011;19141;48.980;8.410;2023-06-10T09:14:49;3.13;;;2.50;;
32788;SDS011;19141;48.980;8.410;2023-06-10T09:17:15;3.00;;;2.63;;
32788;SDS011;19141;48.980;8.410;2023-06-10T09:19:41;3.05;;;2.50;;
32788;SDS011;19141;48.980;8.410;2023-06-10T09:22:09;3.17;;;2.75;;
32788;SDS011;19141;48.980;8.410;2023-06-10T09:24:34;2.97;;;2.67;;
32788;SDS011;19141;48.980;8.410;2023-06-10T09:27:09;3.28;;;2.63;;
32788;SDS011;19141;48.980;8.410;2023-06-10T09:29:48;3.55;;;2.95;;
32788;SDS011;19141;48.980;8.410;2023-06-10T09:32:17;2.78;;;2.50;;
32788;SDS011;19141;48.980;8.410;2023-06-10T09:34:44;2.72;;;2.30;;
32788;SDS011;19141;48.980;8.410;2023-06-10T09:37:10;4.17;;;2.83;;
32788;SDS011;19141;48.980;8.410;2023-06-10T09:42:04;2.70;;;2.30;;
32788;SDS011;19141;48.980;8.410;2023-06-10T09:44:41;2.70;;;2.40;;
32788;SDS011;19141;48.980;8.410;2023-06-10T09:47:06;2.88;;;2.58;;
32788;SDS011;19141;48.980;8.410;2023-06-10T09:49:31;3.20;;;2.90;;
32788;SDS011;19141;48.980;8.410;2023-06-10T09:51:57;2.92;;;2.50;;
32788;SDS011;19141;48.980;8.410;2023-06-10T09:54:22;4.93;;;2.45;;
32788;SDS011;19141;48.980;8.410;2023-06-10T09:56:49;4.90;;;2.30;;
32788;SDS011;19141;48.980;8.410;2023-06-10T09:59:16;3.78;;;2.83;;
32788;SDS011;19141;48.980;8.410;2023-06-10T10:01:56;2.78;;;2.50;;
32788;SDS011;19141;48.980;8.410;2023-06-10T10:04:25;3.15;;;2.85;;
32788;SDS011;19141;48.980;8.410;2023-06-10T10:06:52;3.35;;;2.65;;
32788;SDS011;19141;48.980;8.410;2023-06-10T10:09:17;3.45;;;3.05;;
32788;SDS011;19141;48.980;8.410;2023-06-10T10:11:43;3.28;;;2.70;;
32788;SDS011;19141;48.980;8.410;2023-06-10T10:14:09;3.67;;;3.20;;
32788;SDS011;19141;48.980;8.410;2023-06-10T10:16:40;3.00;;;2.70;;
32788;SDS011;19141;48.980;8.410;2023-06-10T10:19:18;3.55;;;2.83;;
32788;SDS011;19141;48.980;8.410;2023-06-10T10:21:55;4.30;;;3.17;;
32788;SDS011;19141;48.980;8.410;2023-06-10T10:24:30;4.47;;;3.00;;
32788;SDS011;19141;48.980;8.410;2023-06-10T10:27:01;4.25;;;2.90;;
32788;SDS011;19141;48.980;8.410;2023-06-10T10:29:37;3.05;;;2.50;;
32788;SDS011;19141;48.980;8.410;2023-06-10T10:32:04;4.85;;;3.10;;
32788;SDS011;19141;48.980;8.410;2023-06-10T10:37:25;3.33;;;3.00;;
32788;SDS011;19141;48.980;8.410;2023-06-10T10:39:51;3.50;;;3.17;;
32788;SDS011;19141;48.980;8.410;2023-06-10T10:42:16;4.10;;;3.20;;
32788;SDS011;19141;48.980;8.410;2023-06-10T10:44:42;3.92;;;3.30;;
32788;SDS011;19141;48.980;8.410;2023-06-10T10:47:09;3.90;;;2.85;;
32788;SDS011;19141;48.980;8.410;2023-06-10T10:49:37;3.95;;;3.05;;
32788;SDS011;19141;48.980;8.410;2023-06-10T10:52:02;3.42;;;3.03;;
32788;SDS011;19141;48.980;8.410;2023-06-10T10:54:31;2.92;;;2.70;;
32788;SDS011;19141;48.980;8.410;2023-06-10T11:02:44;2.78;;;2.53;;
32788;SDS011;19141;48.980;8.410;2023-06-10T11:05:13;3.30;;;3.00;;
32788;SDS011;19141;48.980;8.410;2023-06-10T11:07:40;3.85;;;3.25;;
32788;SDS011;19141;48.980;8.410;2023-06-10T11:15:10;3.42;;;2.85;;
32788;SDS011;19141;48.980;8.410;2023-06-10T11:29:03;2.95;;;2.65;;
32788;SDS011;19141;48.980;8.410;2023-06-10T11:31:36;2.65;;;2.40;;
32788;SDS011;19141;48.980;8.410;2023-06-10T11:34:05;3.85;;;2.80;;
32788;SDS011;19141;48.980;8.410;2023-06-10T11:36:32;3.33;;;2.83;;
32788;SDS011;19141;48.980;8.410;2023-06-10T11:39:00;2.45;;;2.25;;
32788;SDS011;19141;48.980;8.410;2023-06-10T11:41:28;3.20;;;2.90;;
32788;SDS011;19141;48.980;8.410;2023-06-10T11:43:56;2.83;;;2.58;;
32788;SDS011;19141;48.980;8.410;2023-06-10T11:46:25;3.25;;;2.90;;
32788;SDS011;19141;48.980;8.410;2023-06-10T11:48:56;3.53;;;3.22;;
32788;SDS011;19141;48.980;8.410;2023-06-10T11:51:26;3.22;;;2.85;;
32788;SDS011;19141;48.980;8.410;2023-06-10T11:53:53;2.65;;;2.42;;
32788;SDS011;19141;48.980;8.410;2023-06-10T11:56:20;3.03;;;2.53;;
32788;SDS011;19141;48.980;8.410;2023-06-10T11:58:51;3.55;;;2.63;;
32788;SDS011;19141;48.980;8.410;2023-06-10T12:01:24;3.58;;;2.97;;
32788;SDS011;19141;48.980;8.410;2023-06-10T12:03:57;3.17;;;2.88;;
32788;SDS011;19141;48.980;8.410;2023-06-10T12:11:52;2.65;;;2.42;;
32788;SDS011;19141;48.980;8.410;2023-06-10T12:17:23;3.58;;;2.50;;
32788;SDS011;19141;48.980;8.410;2023-06-10T12:20:02;3.83;;;2.90;;
32788;SDS011;19141;48.980;8.410;2023-06-10T12:22:43;2.83;;;2.40;;
32788;SDS011;19141;48.980;8.410;2023-06-10T12:25:09;3.75;;;2.80;;
32788;SDS011;19141;48.980;8.410;2023-06-10T12:27:36;2.97;;;2.60;;
32788;SDS011;19141;48.980;8.410;2023-06-10T12:30:03;3.05;;;2.70;;
32788;SDS011;19141;48.980;8.410;2023-06-10T12:32:38;3.17;;;2.83;;
32788;SDS011;19141;48.980;8.410;2023-06-10T12:35:11;3.05;;;2.30;;
32788;SDS011;19141;48.980;8.410;2023-06-10T12:37:38;3.22;;;2.92;;
32788;SDS011;19141;48.980;8.410;2023-06-10T12:42:31;3.35;;;2.95;;
32788;SDS011;19141;48.980;8.410;2023-06-10T12:44:59;3.13;;;2.50;;
32788;SDS011;19141;48.980;8.410;2023-06-10T12:47:31;2.85;;;2.60;;
32788;SDS011;19141;48.980;8.410;2023-06-10T12:49:59;3.08;;;2.75;;
32788;SDS011;19141;48.980;8.410;2023-06-10T12:52:25;3.07;;;2.50;;
32788;SDS011;19141;48.980;8.410;2023-06-10T12:54:51;2.83;;;2.53;;
32788;SDS011;19141;48.980;8.410;2023-06-10T12:57:17;2.58;;;2.33;;
32788;SDS011;19141;48.980;8.410;2023-06-10T12:59:42;3.07;;;2.63;;
32788;SDS011;19141;48.980;8.410;2023-06-10T13:02:15;2.67;;;2.30;;
32788;SDS011;19141;48.980;8.410;2023-06-10T13:04:41;3.15;;;2.58;;
32788;SDS011;19141;48.980;8.410;2023-06-10T13:07:07;3.05;;;2.55;;
32788;SDS011;19141;48.980;8.410;2023-06-10T13:09:32;3.23;;;2.90;;
32788;SDS011;19141;48.980;8.410;2023-06-10T13:11:58;2.83;;;2.47;;
32788;SDS011;19141;48.980;8.410;2023-06-10T13:16:50;3.03;;;2.40;;
32788;SDS011;19141;48.980;8.410;2023-06-10T13:19:15;5.17;;;2.60;;
32788;SDS011;19141;48.980;8.410;2023-06-10T13:21:41;4.03;;;2.60;;
32788;SDS011;19141;48.980;8.410;2023-06-10T13:24:06;3.93;;;2.20;;
32788;SDS011;19141;48.980;8.410;2023-06-10T13:26:32;3.60;;;2.87;;
32788;SDS011;19141;48.980;8.410;2023-06-10T13:28:57;3.00;;;2.20;;
32788;SDS011;19141;48.980;8.410;2023-06-10T13:31:23;3.20;;;2.90;;
32788;SDS011;19141;48.980;8.410;2023-06-10T13:33:48;3.43;;;2.60;;
32788;SDS011;19141;48.980;8.410;2023-06-10T13:36:13;4.10;;;2.97;;
32788;SDS011;19141;48.980;8.410;2023-06-10T13:38:39;3.10;;;2.80;;
32788;SDS011;19141;48.980;8.410;2023-06-10T13:41:04;3.00;;;2.70;;
32788;SDS011;19141;48.980;8.410;2023-06-10T13:43:30;3.13;;;2.77;;
32788;SDS011;19141;48.980;8.410;2023-06-10T13:45:56;3.93;;;2.70;;
32788;SDS011;19141;48.980;8.410;2023-06-10T13:48:21;3.03;;;2.67;;
32788;SDS011;19141;48.980;8.410;2023-06-10T13:50:48;4.28;;;3.05;;
32788;SDS011;19141;48.980;8.410;2023-06-10T13:53:13;3.75;;;2.80;;
32788;SDS011;19141;48.980;8.410;2023-06-10T13:55:38;3.08;;;2.78;;
32788;SDS011;19141;48.980;8.410;2023-06-10T13:58:04;2.92;;;2.65;;
32788;SDS011;19141;48.980;8.410;2023-06-10T14:00:30;3.67;;;3.13;;
32788;SDS011;19141;48.980;8.410;2023-06-10T14:02:56;3.30;;;3.00;;
32788;SDS011;19141;48.980;8.410;2023-06-10T14:05:21;4.03;;;2.63;;
32788;SDS011;19141;48.980;8.410;2023-06-10T14:07:47;3.40;;;3.10;;
32788;SDS011;19141;48.980;8.410;2023-06-10T14:10:12;3.05;;;2.65;;
32788;SDS011;19141;48.980;8.410;2023-06-10T14:12:37;3.75;;;2.78;;
32788;SDS011;19141;48.980;8.410;2023-06-10T14:15:04;2.70;;;2.40;;
32788;SDS011;19141;48.980;8.410;2023-06-10T14:17:30;4.32;;;2.80;;
32788;SDS011;19141;48.980;8.410;2023-06-10T14:19:55;2.70;;;2.40;;
32788;SDS011;19141;48.980;8.410;2023-06-10T14:22:20;3.58;;;2.88;;
32788;SDS011;19141;48.980;8.410;2023-06-10T14:24:46;3.65;;;3.00;;
32788;SDS011;19141;48.980;8.410;2023-06-10T14:27:12;6.40;;;4.72;;
32788;SDS011;19141;48.980;8.410;2023-06-10T14:29:37;3.00;;;2.70;;
32788;SDS011;19141;48.980;8.410;2023-06-10T14:32:03;3.65;;;3.30;;
32788;SDS011;19141;48.980;8.410;2023-06-10T14:34:28;2.60;;;2.40;;
32788;SDS011;19141;48.980;8.410;2023-06-10T14:36:58;3.45;;;3.15;;
32788;SDS011;19141;48.980;8.410;2023-06-10T14:39:24;3.75;;;3.03;;
32788;SDS011;19141;48.980;8.410;2023-06-10T14:41:50;2.90;;;2.60;;
32788;SDS011;19141;48.980;8.410;2023-06-10T14:44:17;3.20;;;2.90;;
32788;SDS011;19141;48.980;8.410;2023-06-10T14:46:43;3.00;;;2.70;;
32788;SDS011;19141;48.980;8.410;2023-06-10T14:49:08;3.22;;;2.78;;
32788;SDS011;19141;48.980;8.410;2023-06-10T14:51:34;3.83;;;2.88;;
32788;SDS011;19141;48.980;8.410;2023-06-10T14:53:59;3.13;;;2.70;;
32788;SDS011;19141;48.980;8.410;2023-06-10T14:56:25;3.58;;;2.80;;
32788;SDS011;19141;48.980;8.410;2023-06-10T14:58:51;4.40;;;2.78;;
32788;SDS011;19141;48.980;8.410;2023-06-10T15:01:16;2.88;;;2.45;;
32788;SDS011;19141;48.980;8.410;2023-06-10T15:03:43;4.22;;;3.15;;
32788;SDS011;19141;48.980;8.410;2023-06-10T15:06:09;3.38;;;2.38;;
32788;SDS011;19141;48.980;8.410;2023-06-10T15:08:34;4.22;;;3.60;;
32788;SDS011;19141;48.980;8.410;2023-06-10T15:11:00;2.72;;;2.42;;
32788;SDS011;19141;48.980;8.410;2023-06-10T15:13:27;3.60;;;2.83;;
32788;SDS011;19141;48.980;8.410;2023-06-10T15:15:52;3.75;;;2.65;;
32788;SDS011;19141;48.980;8.410;2023-06-10T15:18:18;2.80;;;2.47;;
32788;SDS011;19141;48.980;8.410;2023-06-10T15:20:43;3.22;;;2.38;;
32788;SDS011;19141;48.980;8.410;2023-06-10T15:23:09;3.42;;;2.08;;
32788;SDS011;19141;48.980;8.410;2023-06-10T15:25:34;2.90;;;2.20;;
32788;SDS011;19141;48.980;8.410;2023-06-10T15:28:00;2.95;;;2.42;;
32788;SDS011;19141;48.980;8.410;2023-06-10T15:30:25;3.40;;;2.60;;
32788;SDS011;19141;48.980;8.410;2023-06-10T15:32:50;3.13;;;2.38;;
32788;SDS011;19141;48.980;8.410;2023-06-10T15:35:16;3.38;;;2.70;;
32788;SDS011;19141;48.980;8.410;2023-06-10T15:37:41;2.92;;;2.63;;
32788;SDS011;19141;48.980;8.410;2023-06-10T15:40:07;2.45;;;2.25;;
32788;SDS011;19141;48.980;8.410;2023-06-10T15:42:32;3.47;;;2.88;;
32788;SDS011;19141;48.980;8.410;2023-06-10T15:44:58;2.83;;;2.50;;
32788;SDS011;19141;48.980;8.410;2023-06-10T15:47:23;3.47;;;2.55;;
32788;SDS011;19141;48.980;8.410;2023-06-10T15:49:49;4.72;;;2.30;;
32788;SDS011;19141;48.980;8.410;2023-06-10T15:52:15;2.80;;;2.50;;
32788;SDS011;19141;48.980;8.410;2023-06-10T15:54:40;2.75;;;2.40;;
32788;SDS011;19141;48.980;8.410;2023-06-10T15:57:06;2.70;;;2.35;;
32788;SDS011;19141;48.980;8.410;2023-06-10T15:59:33;2.42;;;2.22;;
32788;SDS011;19141;48.980;8.410;2023-06-10T16:01:58;3.00;;;2.33;;
32788;SDS011;19141;48.980;8.410;2023-06-10T16:04:24;2.63;;;2.28;;
32788;SDS011;19141;48.980;8.410;2023-06-10T16:06:49;3.38;;;2.47;;
32788;SDS011;19141;48.980;8.410;2023-06-10T16:09:15;3.17;;;2.33;;
32788;SDS011;19141;48.980;8.410;2023-06-10T16:11:41;4.17;;;2.27;;
32788;SDS011;19141;48.980;8.410;2023-06-10T16:14:06;2.35;;;2.08;;
32788;SDS011;19141;48.980;8.410;2023-06-10T16:16:32;2.78;;;2.45;;
32788;SDS011;19141;48.980;8.410;2023-06-10T16:18:57;3.47;;;2.78;;
32788;SDS011;19141;48.980;8.410;2023-06-10T16:21:23;4.18;;;3.75;;
32788;SDS011;19141;48.980;8.410;2023-06-10T16:23:48;8.88;;;8.07;;
32788;SDS011;19141;48.980;8.410;2023-06-10T16:26:15;16.45;;;14.93;;
32788;SDS011;19141;48.980;8.410;2023-06-10T16:28:40;19.73;;;17.88;;
32788;SDS011;19141;48.980;8.410;2023-06-10T16:31:05;6.68;;;5.57;;
32788;SDS011;19141;48.980;8.410;2023-06-10T16:33:31;4.82;;;2.80;;
32788;SDS011;19141;48.980;8.410;2023-06-10T16:35:57;3.03;;;2.63;;
32788;SDS011;19141;48.980;8.410;2023-06-10T16:38:22;2.67;;;2.33;;
32788;SDS011;19141;48.980;8.410;2023-06-10T16:40:48;4.07;;;3.40;;
32788;SDS011;19141;48.980;8.410;2023-06-10T16:43:13;2.80;;;2.40;;
32788;SDS011;19141;48.980;8.410;2023-06-10T16:45:39;2.80;;;2.53;;
32788;SDS011;19141;48.980;8.410;2023-06-10T16:48:04;2.60;;;2.38;;
32788;SDS011;19141;48.980;8.410;2023-06-10T16:50:31;3.10;;;2.63;;
32788;SDS011;19141;48.980;8.410;2023-06-10T16:52:56;3.15;;;2.58;;
32788;SDS011;19141;48.980;8.410;2023-06-10T16:55:22;3.25;;;2.55;;
32788;SDS011;19141;48.980;8.410;2023-06-10T16:57:47;2.88;;;2.13;;
32788;SDS011;19141;48.980;8.410;2023-06-10T17:00:12;2.40;;;2.20;;
32788;SDS011;19141;48.980;8.410;2023-06-10T17:02:38;2.53;;;2.33;;
32788;SDS011;19141;48.980;8.410;2023-06-10T17:05:04;2.60;;;2.40;;
32788;SDS011;19141;48.980;8.410;2023-06-10T17:07:29;2.55;;;2.30;;
32788;SDS011;19141;48.980;8.410;2023-06-10T17:09:55;2.60;;;2.13;;
32788;SDS011;19141;48.980;8.410;2023-06-10T17:12:21;2.30;;;2.10;;
32788;SDS011;19141;48.980;8.410;2023-06-10T17:14:46;3.38;;;2.40;;
32788;SDS011;19141;48.980;8.410;2023-06-10T17:17:11;2.38;;;2.17;;
32788;SDS011;19141;48.980;8.410;2023-06-10T17:19:37;2.15;;;1.88;;
32788;SDS011;19141;48.980;8.410;2023-06-10T17:22:02;2.67;;;2.30;;
32788;SDS011;19141;48.980;8.410;2023-06-10T17:24:28;3.75;;;2.42;;
32788;SDS011;19141;48.980;8.410;2023-06-10T17:26:53;2.88;;;2.53;;
32788;SDS011;19141;48.980;8.410;2023-06-10T17:29:19;2.85;;;2.55;;
32788;SDS011;19141;48.980;8.410;2023-06-10T17:31:44;3.20;;;2.40;;
32788;SDS011;19141;48.980;8.410;2023-06-10T17:34:10;2.83;;;2.53;;
32788;SDS011;19141;48.980;8.410;2023-06-10T17:36:35;2.38;;;2.17;;
32788;SDS011;19141;48.980;8.410;2023-06-10T17:39:01;2.53;;;2.28;;
32788;SDS011;19141;48.980;8.410;2023-06-10T17:41:26;2.63;;;2.13;;
32788;SDS011;19141;48.980;8.410;2023-06-10T17:43:52;3.78;;;2.72;;
32788;SDS011;19141;48.980;8.410;2023-06-10T17:46:17;2.58;;;2.30;;
32788;SDS011;19141;48.980;8.410;2023-06-10T17:48:42;2.90;;;2.50;;
32788;SDS011;19141;48.980;8.410;2023-06-10T17:51:08;2.90;;;2.60;;
32788;SDS011;19141;48.980;8.410;2023-06-10T17:53:34;3.17;;;2.70;;
32788;SDS011;19141;48.980;8.410;2023-06-10T17:55:59;3.00;;;2.70;;
32788;SDS011;19141;48.980;8.410;2023-06-10T17:58:25;2.80;;;2.17;;
32788;SDS011;19141;48.980;8.410;2023-06-10T18:00:50;3.00;;;2.67;;
32788;SDS011;19141;48.980;8.410;2023-06-10T18:03:16;3.38;;;2.63;;
32788;SDS011;19141;48.980;8.410;2023-06-10T18:05:45;2.75;;;2.45;;
32788;SDS011;19141;48.980;8.410;2023-06-10T18:08:10;3.05;;;2.75;;
32788;SDS011;19141;48.980;8.410;2023-06-10T18:10:36;3.22;;;2.50;;
32788;SDS011;19141;48.980;8.410;2023-06-10T18:13:01;3.38;;;2.58;;
32788;SDS011;19141;48.980;8.410;2023-06-10T18:15:26;2.60;;;2.40;;
32788;SDS011;19141;48.980;8.410;2023-06-10T18:17:52;2.75;;;2.38;;
32788;SDS011;19141;48.980;8.410;2023-06-10T18:20:17;3.03;;;2.17;;
32788;SDS011;19141;48.980;8.410;2023-06-10T18:22:42;2.67;;;2.38;;
32788;SDS011;19141;48.980;8.410;2023-06-10T18:25:08;3.00;;;2.45;;
32788;SDS011;19141;48.980;8.410;2023-06-10T18:27:33;3.22;;;2.67;;
32788;SDS011;19141;48.980;8.410;2023-06-10T18:29:59;2.85;;;2.55;;
32788;SDS011;19141;48.980;8.410;2023-06-10T18:32:25;2.95;;;2.65;;
32788;SDS011;19141;48.980;8.410;2023-06-10T18:34:50;4.10;;;2.90;;
32788;SDS011;19141;48.980;8.410;2023-06-10T18:37:17;2.97;;;2.67;;
32788;SDS011;19141;48.980;8.410;2023-06-10T18:39:43;2.47;;;2.22;;
32788;SDS011;19141;48.980;8.410;2023-06-10T18:42:09;2.80;;;2.30;;
32788;SDS011;19141;48.980;8.410;2023-06-10T18:44:34;2.78;;;2.50;;
32788;SDS011;19141;48.980;8.410;2023-06-10T18:47:00;2.88;;;2.50;;
32788;SDS011;19141;48.980;8.410;2023-06-10T18:49:26;3.40;;;2.83;;
32788;SDS011;19141;48.980;8.410;2023-06-10T18:51:51;4.97;;;2.40;;
32788;SDS011;19141;48.980;8.410;2023-06-10T18:54:16;2.22;;;2.03;;
32788;SDS011;19141;48.980;8.410;2023-06-10T18:56:42;3.35;;;2.33;;
32788;SDS011;19141;48.980;8.410;2023-06-10T18:59:08;3.45;;;2.55;;
32788;SDS011;19141;48.980;8.410;2023-06-10T19:01:34;3.25;;;2.40;;
32788;SDS011;19141;48.980;8.410;2023-06-10T19:03:59;3.88;;;2.30;;
32788;SDS011;19141;48.980;8.410;2023-06-10T19:06:25;3.28;;;2.63;;
32788;SDS011;19141;48.980;8.410;2023-06-10T19:08:50;3.15;;;2.63;;
32788;SDS011;19141;48.980;8.410;2023-06-10T19:11:16;2.60;;;2.40;;
32788;SDS011;19141;48.980;8.410;2023-06-10T19:13:42;2.40;;;2.20;;
32788;SDS011;19141;48.980;8.410;2023-06-10T19:16:08;2.55;;;2.35;;
32788;SDS011;19141;48.980;8.410;2023-06-10T19:18:33;3.22;;;2.40;;
32788;SDS011;19141;48.980;8.410;2023-06-10T19:20:59;2.92;;;2.17;;
32788;SDS011;19141;48.980;8.410;2023-06-10T19:23:24;3.08;;;2.45;;
32788;SDS011;19141;48.980;8.410;2023-06-10T19:25:50;3.75;;;2.55;;
32788;SDS011;19141;48.980;8.410;2023-06-10T19:28:15;2.50;;;2.30;;
32788;SDS011;19141;48.980;8.410;2023-06-10T19:30:41;2.75;;;2.20;;
32788;SDS011;19141;48.980;8.410;2023-06-10T19:33:07;3.42;;;2.33;;
32788;SDS011;19141;48.980;8.410;2023-06-10T19:35:32;3.17;;;2.60;;
32788;SDS011;19141;48.980;8.410;2023-06-10T19:37:59;2.92;;;2.38;;
32788;SDS011;19141;48.980;8.410;2023-06-10T19:40:24;3.22;;;2.50;;
32788;SDS011;19141;48.980;8.410;2023-06-10T19:42:49;2.85;;;2.33;;
32788;SDS011;19141;48.980;8.410;2023-06-10T19:45:16;3.03;;;2.63;;
32788;SDS011;19141;48.980;8.410;2023-06-10T19:47:41;2.80;;;2.33;;
32788;SDS011;19141;48.980;8.410;2023-06-10T19:50:07;3.30;;;2.25;;
32788;SDS011;19141;48.980;8.410;2023-06-10T19:52:32;2.35;;;2.10;;